Time;durP1;ratioP1;P1;durP2;ratioP2;P2;SDS_P1;SDS_P2;PMS_P1;PMS_P2;Temp;Humidity;BMP_temperature;BMP_pressure;BME280_temperature;BME280_humidity;BME280_pressure;Samples;Min_cycle;Max_cycle;Signal;HPM_P1;HPM_P2
2023/09/18 00:01:19;;;;;;;33.38;22.00;;;;;;;;;;5030236;28;20665;-70
2023/09/18 00:03:45;;;;;;;32.10;22.48;;;;;;;;;;5031455;28;20178;-70
2023/09/18 00:06:11;;;;;;;35.08;22.50;;;;;;;;;;5146938;22;20298;-66
2023/09/18 00:08:38;;;;;;;29.52;21.95;;;;;;;;;;4976224;28;20671;-66
2023/09/18 00:11:03;;;;;;;34.60;23.10;;;;;;;;;;4972750;28;20180;-66
2023/09/18 00:13:29;;;;;;;35.08;23.95;;;;;;;;;;4968848;28;20203;-66
2023/09/18 00:15:55;;;;;;;34.50;21.92;;;;;;;;;;4969640;28;20659;-66
2023/09/18 00:18:21;;;;;;;32.35;22.40;;;;;;;;;;4971065;28;20235;-66
2023/09/18 00:20:48;;;;;;;34.13;21.85;;;;;;;;;;4970120;28;20188;-68
2023/09/18 00:23:13;;;;;;;30.67;22.40;;;;;;;;;;4971134;28;20279;-65
2023/09/18 00:25:41;;;;;;;34.63;22.65;;;;;;;;;;4954813;28;20287;-65
2023/09/18 00:28:06;;;;;;;28.73;21.50;;;;;;;;;;4968133;28;20192;-66
2023/09/18 00:30:31;;;;;;;34.97;23.33;;;;;;;;;;4971643;28;20229;-65
2023/09/18 00:32:56;;;;;;;30.08;21.88;;;;;;;;;;4970476;28;20255;-67
2023/09/18 00:35:23;;;;;;;32.03;21.75;;;;;;;;;;4968983;28;20184;-67
2023/09/18 00:37:48;;;;;;;31.17;22.25;;;;;;;;;;4970326;28;20288;-67
2023/09/18 00:40:14;;;;;;;31.80;21.65;;;;;;;;;;4960526;28;20712;-67
2023/09/18 00:42:39;;;;;;;32.45;22.50;;;;;;;;;;4968802;28;20194;-67
2023/09/18 00:45:05;;;;;;;30.80;22.60;;;;;;;;;;4970511;28;20593;-67
2023/09/18 00:47:30;;;;;;;37.30;24.65;;;;;;;;;;4969655;28;20203;-67
2023/09/18 00:49:55;;;;;;;34.67;22.08;;;;;;;;;;4968490;28;20571;-67
2023/09/18 00:52:21;;;;;;;33.05;23.58;;;;;;;;;;4968273;28;20181;-67
2023/09/18 00:54:47;;;;;;;33.85;21.35;;;;;;;;;;4962914;28;20299;-66
2023/09/18 00:57:13;;;;;;;27.48;21.08;;;;;;;;;;4959950;28;20225;-67
2023/09/18 00:59:38;;;;;;;31.25;21.17;;;;;;;;;;4970616;28;20184;-67
2023/09/18 01:02:03;;;;;;;31.33;20.20;;;;;;;;;;4975405;28;20562;-67
2023/09/18 01:04:29;;;;;;;33.42;23.23;;;;;;;;;;4978546;28;20255;-67
2023/09/18 01:06:56;;;;;;;36.72;21.98;;;;;;;;;;4971324;28;20210;-66
2023/09/18 01:09:22;;;;;;;31.92;21.73;;;;;;;;;;4969254;28;20176;-66
2023/09/18 01:11:59;;;;;;;32.85;21.15;;;;;;;;;;4970683;28;20613;-67
2023/09/18 01:14:33;;;;;;;27.15;20.88;;;;;;;;;;4974650;28;20279;-67
2023/09/18 01:17:03;;;;;;;35.45;22.45;;;;;;;;;;4971152;28;20741;-67
2023/09/18 01:19:36;;;;;;;32.78;21.65;;;;;;;;;;4974623;28;20176;-67
2023/09/18 01:22:01;;;;;;;31.05;21.05;;;;;;;;;;4972601;28;20181;-66
2023/09/18 01:24:27;;;;;;;32.08;22.63;;;;;;;;;;4973347;28;20279;-66
2023/09/18 01:26:52;;;;;;;30.48;21.45;;;;;;;;;;4964144;28;20219;-67
2023/09/18 01:29:19;;;;;;;30.65;21.73;;;;;;;;;;4974232;28;20184;-67
2023/09/18 01:31:44;;;;;;;30.40;20.70;;;;;;;;;;4973761;28;20239;-66
2023/09/18 01:34:10;;;;;;;31.58;21.65;;;;;;;;;;4973239;28;20212;-67
2023/09/18 01:36:35;;;;;;;29.15;21.95;;;;;;;;;;4973232;28;20470;-66
2023/09/18 01:39:00;;;;;;;31.48;19.58;;;;;;;;;;4974673;28;20211;-67
2023/09/18 01:41:26;;;;;;;30.60;20.20;;;;;;;;;;4976213;28;20183;-67
2023/09/18 01:43:51;;;;;;;31.02;21.92;;;;;;;;;;4960275;28;20181;-66
2023/09/18 01:46:16;;;;;;;29.45;20.60;;;;;;;;;;4971663;28;20196;-67
2023/09/18 01:48:46;;;;;;;31.10;21.63;;;;;;;;;;4969183;28;20227;-67
2023/09/18 01:51:13;;;;;;;28.08;19.75;;;;;;;;;;4973534;28;20180;-66
2023/09/18 01:53:38;;;;;;;27.67;19.60;;;;;;;;;;4973027;28;20203;-66
2023/09/18 01:56:03;;;;;;;28.33;18.88;;;;;;;;;;4970605;28;20192;-66
2023/09/18 01:58:29;;;;;;;31.27;20.58;;;;;;;;;;4961601;28;20223;-66
2023/09/18 02:00:54;;;;;;;29.55;20.40;;;;;;;;;;4986697;28;20686;-66
2023/09/18 02:03:21;;;;;;;29.23;19.35;;;;;;;;;;4973562;28;20617;-67
2023/09/18 02:05:46;;;;;;;27.10;18.52;;;;;;;;;;4970254;28;20204;-66
2023/09/18 02:08:11;;;;;;;28.27;20.00;;;;;;;;;;4973633;28;20203;-66
2023/09/18 02:10:36;;;;;;;31.00;19.48;;;;;;;;;;4973288;28;20212;-67
2023/09/18 02:13:01;;;;;;;27.80;19.08;;;;;;;;;;4973053;28;20176;-66
2023/09/18 02:15:27;;;;;;;27.23;19.63;;;;;;;;;;4964901;28;20178;-67
2023/09/18 02:17:52;;;;;;;31.40;19.60;;;;;;;;;;4973154;28;20182;-66
2023/09/18 02:20:18;;;;;;;26.08;19.08;;;;;;;;;;4974862;28;20239;-66
2023/09/18 02:22:46;;;;;;;28.38;19.23;;;;;;;;;;4974012;28;20188;-66
2023/09/18 02:25:12;;;;;;;31.45;19.85;;;;;;;;;;4971662;28;20187;-67
2023/09/18 02:27:37;;;;;;;29.75;20.00;;;;;;;;;;4975287;28;20204;-66
2023/09/18 02:30:02;;;;;;;24.23;17.67;;;;;;;;;;4973489;28;20246;-66
2023/09/18 02:32:27;;;;;;;26.27;19.02;;;;;;;;;;4973162;28;20271;-66
2023/09/18 02:34:53;;;;;;;42.20;19.40;;;;;;;;;;4970982;28;20700;-66
2023/09/18 02:37:18;;;;;;;25.20;18.80;;;;;;;;;;4973807;28;20668;-66
2023/09/18 02:39:43;;;;;;;26.98;18.10;;;;;;;;;;4972966;28;20203;-66
2023/09/18 02:42:08;;;;;;;27.20;18.05;;;;;;;;;;4970670;28;20558;-66
2023/09/18 02:44:34;;;;;;;22.13;16.55;;;;;;;;;;4974396;28;20188;-66
2023/09/18 02:46:59;;;;;;;29.33;18.90;;;;;;;;;;4969562;28;20211;-66
2023/09/18 02:49:24;;;;;;;26.30;17.10;;;;;;;;;;4972914;28;20172;-67
2023/09/18 02:51:49;;;;;;;24.42;17.25;;;;;;;;;;4971301;28;20279;-66
2023/09/18 02:54:15;;;;;;;20.90;15.98;;;;;;;;;;4979245;28;20200;-66
2023/09/18 02:56:40;;;;;;;26.90;16.13;;;;;;;;;;4970415;28;20195;-67
2023/09/18 02:59:05;;;;;;;22.95;16.67;;;;;;;;;;4973696;28;20643;-66
2023/09/18 03:01:30;;;;;;;25.23;16.45;;;;;;;;;;4972941;28;20267;-66
2023/09/18 03:03:56;;;;;;;21.17;15.00;;;;;;;;;;4975743;28;20267;-66
2023/09/18 03:06:21;;;;;;;23.35;17.38;;;;;;;;;;4968944;28;20465;-66
2023/09/18 03:08:46;;;;;;;21.25;15.27;;;;;;;;;;4975214;28;20267;-66
2023/09/18 03:11:12;;;;;;;21.58;15.70;;;;;;;;;;4949213;28;20192;-66
2023/09/18 03:13:42;;;;;;;18.50;15.07;;;;;;;;;;4982369;28;20222;-65
2023/09/18 03:16:09;;;;;;;22.48;15.98;;;;;;;;;;4969003;28;20244;-67
2023/09/18 03:18:35;;;;;;;24.55;16.92;;;;;;;;;;4963560;28;20231;-65
2023/09/18 03:21:00;;;;;;;21.70;16.73;;;;;;;;;;4968739;28;20584;-66
2023/09/18 03:23:25;;;;;;;25.42;18.50;;;;;;;;;;4971242;28;20180;-65
2023/09/18 03:25:50;;;;;;;22.88;17.48;;;;;;;;;;4972142;28;20203;-66
2023/09/18 03:28:15;;;;;;;21.98;16.63;;;;;;;;;;4972273;28;20180;-66
2023/09/18 03:30:41;;;;;;;26.85;17.33;;;;;;;;;;4972243;28;20173;-67
2023/09/18 03:33:06;;;;;;;26.00;17.10;;;;;;;;;;4985973;28;20775;-67
2023/09/18 03:35:32;;;;;;;21.52;17.15;;;;;;;;;;4963290;28;20297;-67
2023/09/18 03:37:57;;;;;;;20.25;15.95;;;;;;;;;;4967619;28;20671;-66
2023/09/18 03:40:23;;;;;;;19.25;15.98;;;;;;;;;;4972081;28;20377;-67
2023/09/18 03:42:48;;;;;;;21.63;15.23;;;;;;;;;;4971960;28;20205;-66
2023/09/18 03:45:14;;;;;;;22.98;17.05;;;;;;;;;;4972037;28;20168;-67
2023/09/18 03:47:40;;;;;;;19.80;14.82;;;;;;;;;;4971869;28;20204;-68
2023/09/18 03:50:09;;;;;;;23.38;14.50;;;;;;;;;;4968958;28;20314;-67
2023/09/18 03:52:34;;;;;;;23.27;14.80;;;;;;;;;;4964254;28;20228;-67
2023/09/18 03:54:59;;;;;;;18.83;13.65;;;;;;;;;;4965459;28;20372;-68
2023/09/18 03:57:24;;;;;;;15.93;12.73;;;;;;;;;;4974801;28;20255;-67
2023/09/18 03:59:50;;;;;;;17.48;11.93;;;;;;;;;;4966709;28;20184;-68
2023/09/18 04:02:15;;;;;;;7.97;5.45;;;;;;;;;;4971101;28;20180;-68
2023/09/18 04:04:40;;;;;;;7.47;3.40;;;;;;;;;;4968875;28;20352;-68
2023/09/18 04:07:06;;;;;;;6.22;3.00;;;;;;;;;;4971845;28;20215;-68
2023/09/18 04:09:31;;;;;;;7.65;4.05;;;;;;;;;;4965796;28;20656;-68
2023/09/18 04:11:56;;;;;;;6.82;3.92;;;;;;;;;;4968017;28;20195;-68
2023/09/18 04:14:21;;;;;;;8.57;4.80;;;;;;;;;;4969964;28;20685;-68
2023/09/18 04:16:46;;;;;;;10.50;7.50;;;;;;;;;;4970954;28;20279;-69
2023/09/18 04:19:12;;;;;;;14.43;7.40;;;;;;;;;;4985656;28;20259;-69
2023/09/18 04:21:37;;;;;;;14.43;9.27;;;;;;;;;;4970067;28;20566;-68
2023/09/18 04:24:03;;;;;;;17.90;10.80;;;;;;;;;;4970561;28;20446;-68
2023/09/18 04:26:32;;;;;;;14.57;10.73;;;;;;;;;;4969339;28;20209;-69
2023/09/18 04:28:59;;;;;;;17.70;11.80;;;;;;;;;;4970133;28;20521;-68
2023/09/18 04:31:24;;;;;;;17.83;11.85;;;;;;;;;;4969870;28;20215;-69
2023/09/18 04:33:50;;;;;;;14.00;11.70;;;;;;;;;;4970097;28;20192;-68
2023/09/18 04:36:15;;;;;;;15.77;11.18;;;;;;;;;;4972023;28;20742;-68
2023/09/18 04:38:40;;;;;;;13.93;10.43;;;;;;;;;;4973685;28;20192;-67
2023/09/18 04:41:07;;;;;;;13.55;10.63;;;;;;;;;;4965207;28;20177;-66
2023/09/18 04:43:33;;;;;;;14.30;10.45;;;;;;;;;;4970771;28;20538;-67
2023/09/18 04:45:58;;;;;;;14.23;10.50;;;;;;;;;;4973036;28;20356;-67
2023/09/18 04:48:23;;;;;;;14.00;10.15;;;;;;;;;;4973230;28;20641;-68
2023/09/18 04:50:49;;;;;;;15.02;10.05;;;;;;;;;;4972361;28;20176;-67
2023/09/18 04:53:14;;;;;;;12.77;10.63;;;;;;;;;;4970353;28;20184;-67
2023/09/18 04:55:39;;;;;;;16.45;12.45;;;;;;;;;;4974922;28;20204;-67
2023/09/18 04:58:05;;;;;;;16.60;12.20;;;;;;;;;;4972594;28;20259;-68
2023/09/18 05:00:31;;;;;;;15.65;12.02;;;;;;;;;;4971843;28;20176;-67
2023/09/18 05:02:59;;;;;;;16.40;11.55;;;;;;;;;;4972859;28;20225;-67
2023/09/18 05:05:24;;;;;;;16.77;12.70;;;;;;;;;;4969816;28;20180;-67
2023/09/18 05:07:50;;;;;;;14.80;11.85;;;;;;;;;;4973546;28;20192;-68
2023/09/18 05:10:15;;;;;;;17.92;13.00;;;;;;;;;;4972003;28;20176;-68
2023/09/18 05:12:40;;;;;;;15.45;12.68;;;;;;;;;;4976245;28;20211;-67
2023/09/18 05:15:06;;;;;;;16.45;12.10;;;;;;;;;;4973131;28;20207;-69
2023/09/18 05:17:46;;;;;;;17.85;13.70;;;;;;;;;;4977393;28;20258;-68
2023/09/18 05:20:13;;;;;;;17.67;12.88;;;;;;;;;;4974713;28;20219;-67
2023/09/18 05:22:38;;;;;;;17.15;12.43;;;;;;;;;;4972649;28;20275;-68
2023/09/18 05:25:05;;;;;;;18.95;13.02;;;;;;;;;;4976596;28;20259;-67
2023/09/18 05:27:30;;;;;;;18.42;13.05;;;;;;;;;;4971998;28;20239;-67
2023/09/18 05:29:56;;;;;;;20.33;14.27;;;;;;;;;;4977574;28;20212;-67
2023/09/18 05:32:21;;;;;;;17.27;13.95;;;;;;;;;;4974572;28;20212;-67
2023/09/18 05:34:46;;;;;;;15.88;13.02;;;;;;;;;;4975038;28;20295;-67
2023/09/18 05:37:11;;;;;;;17.95;13.13;;;;;;;;;;4972516;28;20316;-67
2023/09/18 05:39:37;;;;;;;16.27;12.63;;;;;;;;;;4989893;28;20667;-67
2023/09/18 05:42:02;;;;;;;16.98;13.35;;;;;;;;;;4971617;28;20180;-67
2023/09/18 05:44:27;;;;;;;17.58;12.95;;;;;;;;;;4974137;28;20187;-67
2023/09/18 05:46:52;;;;;;;20.35;13.15;;;;;;;;;;4973498;28;20211;-68
2023/09/18 05:49:18;;;;;;;16.85;11.98;;;;;;;;;;4973886;28;20172;-66
2023/09/18 05:51:43;;;;;;;15.73;11.82;;;;;;;;;;4972360;28;20184;-66
2023/09/18 05:54:08;;;;;;;17.45;12.75;;;;;;;;;;4970769;28;20582;-66
2023/09/18 05:56:34;;;;;;;14.98;11.13;;;;;;;;;;4976361;28;20283;-67
2023/09/18 05:58:59;;;;;;;13.40;11.55;;;;;;;;;;4973186;28;20176;-67
2023/09/18 06:01:25;;;;;;;18.10;12.68;;;;;;;;;;4963007;28;20169;-68
2023/09/18 06:03:50;;;;;;;18.05;12.65;;;;;;;;;;4973255;28;20184;-67
2023/09/18 06:06:15;;;;;;;18.85;12.65;;;;;;;;;;4984965;23;20231;-71
2023/09/18 06:08:40;;;;;;;22.15;12.25;;;;;;;;;;4996257;28;20230;-71
2023/09/18 06:11:05;;;;;;;14.82;11.05;;;;;;;;;;4995208;28;20186;-71
2023/09/18 06:13:31;;;;;;;19.33;12.05;;;;;;;;;;4995616;28;20218;-72
2023/09/18 06:15:56;;;;;;;14.82;10.02;;;;;;;;;;4994934;28;20656;-71
2023/09/18 06:18:22;;;;;;;12.70;8.20;;;;;;;;;;4994759;28;20191;-72
2023/09/18 06:20:47;;;;;;;11.57;7.53;;;;;;;;;;4995214;28;20543;-72
2023/09/18 06:23:13;;;;;;;10.15;7.85;;;;;;;;;;5002934;28;20176;-72
2023/09/18 06:25:38;;;;;;;10.98;7.47;;;;;;;;;;4991255;28;20706;-71
2023/09/18 06:28:03;;;;;;;11.75;7.72;;;;;;;;;;5008791;28;20249;-72
2023/09/18 06:30:30;;;;;;;10.82;6.90;;;;;;;;;;4998580;28;20204;-71
2023/09/18 06:32:56;;;;;;;9.80;6.75;;;;;;;;;;4998848;28;20176;-72
2023/09/18 06:35:21;;;;;;;11.50;8.10;;;;;;;;;;4993284;28;20573;-72
2023/09/18 06:37:46;;;;;;;9.18;7.38;;;;;;;;;;4998875;28;20674;-71
2023/09/18 06:40:11;;;;;;;11.55;6.68;;;;;;;;;;4996166;28;20540;-71
2023/09/18 06:42:37;;;;;;;9.60;6.30;;;;;;;;;;4988948;28;20912;-71
2023/09/18 06:45:06;;;;;;;9.00;6.72;;;;;;;;;;4987881;28;20711;-71
2023/09/18 06:47:31;;;;;;;10.88;7.18;;;;;;;;;;4997361;28;20286;-71
2023/09/18 06:49:57;;;;;;;13.80;7.63;;;;;;;;;;4997882;28;20682;-72
2023/09/18 06:52:22;;;;;;;10.68;7.07;;;;;;;;;;4984234;28;20180;-71
2023/09/18 06:54:48;;;;;;;10.10;6.65;;;;;;;;;;4994187;28;20210;-71
2023/09/18 06:57:13;;;;;;;13.15;7.28;;;;;;;;;;5001876;28;20195;-72
2023/09/18 06:59:38;;;;;;;7.78;6.30;;;;;;;;;;4993794;28;20186;-70
2023/09/18 07:02:03;;;;;;;9.77;7.05;;;;;;;;;;4998204;28;20187;-71
2023/09/18 07:04:28;;;;;;;9.10;6.93;;;;;;;;;;4999370;28;20655;-70
2023/09/18 07:06:54;;;;;;;8.20;6.10;;;;;;;;;;4994329;28;20269;-70
2023/09/18 07:09:22;;;;;;;8.20;5.97;;;;;;;;;;4996824;28;20178;-70
2023/09/18 07:11:48;;;;;;;8.48;6.28;;;;;;;;;;5006130;28;20188;-71
2023/09/18 07:14:13;;;;;;;9.55;6.10;;;;;;;;;;4998848;28;20283;-71
2023/09/18 07:16:38;;;;;;;8.15;5.45;;;;;;;;;;4994193;28;20187;-71
2023/09/18 07:19:04;;;;;;;8.43;6.07;;;;;;;;;;4995115;28;20182;-70
2023/09/18 07:21:29;;;;;;;8.88;5.93;;;;;;;;;;4993066;28;20638;-70
2023/09/18 07:23:55;;;;;;;8.00;5.35;;;;;;;;;;4994782;28;20255;-70
2023/09/18 07:26:20;;;;;;;7.32;6.05;;;;;;;;;;4993613;28;20218;-70
2023/09/18 07:28:46;;;;;;;7.00;6.28;;;;;;;;;;4990617;28;20237;-70
2023/09/18 07:31:12;;;;;;;6.82;5.68;;;;;;;;;;4984213;28;20217;-70
2023/09/18 07:33:37;;;;;;;8.95;6.20;;;;;;;;;;4995196;28;20290;-70
2023/09/18 07:36:03;;;;;;;10.13;6.68;;;;;;;;;;5002219;28;20199;-70
2023/09/18 07:38:28;;;;;;;8.00;5.60;;;;;;;;;;4996769;28;20247;-70
2023/09/18 07:40:54;;;;;;;10.55;6.07;;;;;;;;;;4993445;28;20674;-69
2023/09/18 07:43:20;;;;;;;8.50;5.60;;;;;;;;;;4993562;28;20204;-69
2023/09/18 07:45:45;;;;;;;7.60;5.45;;;;;;;;;;4990073;28;20214;-70
2023/09/18 07:48:10;;;;;;;9.18;5.63;;;;;;;;;;4990547;28;20266;-70
2023/09/18 07:50:35;;;;;;;10.77;6.00;;;;;;;;;;4997429;28;20600;-69
2023/09/18 07:53:01;;;;;;;9.48;6.22;;;;;;;;;;4994289;28;20172;-69
2023/09/18 07:55:26;;;;;;;9.52;5.65;;;;;;;;;;4992162;28;20207;-70
2023/09/18 07:57:51;;;;;;;5.82;5.13;;;;;;;;;;4992795;28;20204;-69
2023/09/18 08:00:18;;;;;;;8.23;5.03;;;;;;;;;;4992217;28;20295;-69
2023/09/18 08:02:43;;;;;;;8.55;5.60;;;;;;;;;;4991044;28;20188;-69
2023/09/18 08:05:08;;;;;;;11.20;6.57;;;;;;;;;;4992755;28;20182;-71
2023/09/18 08:07:35;;;;;;;8.32;5.32;;;;;;;;;;4986472;28;20238;-70
2023/09/18 08:10:01;;;;;;;5.32;4.20;;;;;;;;;;4996587;28;20545;-69
2023/09/18 08:12:26;;;;;;;9.10;5.25;;;;;;;;;;4996666;28;20175;-69
2023/09/18 08:14:51;;;;;;;7.97;4.95;;;;;;;;;;4993361;28;20293;-69
2023/09/18 08:17:16;;;;;;;6.40;5.45;;;;;;;;;;4996545;28;20578;-69
2023/09/18 08:19:43;;;;;;;7.40;5.32;;;;;;;;;;4995528;28;20234;-69
2023/09/18 08:22:10;;;;;;;10.23;4.97;;;;;;;;;;4995210;28;20172;-70
2023/09/18 08:24:35;;;;;;;8.18;5.57;;;;;;;;;;4997047;28;20262;-70
2023/09/18 08:27:00;;;;;;;9.10;5.20;;;;;;;;;;4995908;28;20222;-70
2023/09/18 08:29:25;;;;;;;10.05;4.53;;;;;;;;;;4996627;28;20632;-69
2023/09/18 08:31:51;;;;;;;7.03;4.30;;;;;;;;;;4994185;28;20180;-70
2023/09/18 08:34:16;;;;;;;11.48;4.60;;;;;;;;;;4996046;28;20200;-68
2023/09/18 08:36:41;;;;;;;4.43;3.50;;;;;;;;;;4999538;28;20195;-68
2023/09/18 08:39:07;;;;;;;4.90;4.28;;;;;;;;;;4996361;28;20263;-69
2023/09/18 08:41:32;;;;;;;3.80;3.42;;;;;;;;;;4996026;28;20168;-69
2023/09/18 08:44:03;;;;;;;11.18;4.22;;;;;;;;;;4992073;28;20184;-69
2023/09/18 08:46:28;;;;;;;6.80;3.85;;;;;;;;;;4994108;28;20207;-68
2023/09/18 08:48:54;;;;;;;8.52;3.88;;;;;;;;;;4992021;28;20184;-68
2023/09/18 08:51:19;;;;;;;7.25;4.35;;;;;;;;;;4994678;28;20555;-68
2023/09/18 08:53:45;;;;;;;9.25;4.45;;;;;;;;;;4994794;28;20207;-68
2023/09/18 08:56:12;;;;;;;5.85;3.60;;;;;;;;;;4993861;28;20198;-69
2023/09/18 08:58:40;;;;;;;4.30;3.90;;;;;;;;;;4995271;28;20172;-68
2023/09/18 09:01:09;;;;;;;5.57;3.42;;;;;;;;;;4995025;28;20176;-69
2023/09/18 09:03:35;;;;;;;4.70;3.58;;;;;;;;;;4994323;28;20271;-69
2023/09/18 09:06:01;;;;;;;6.45;3.65;;;;;;;;;;4993369;28;20641;-69
2023/09/18 09:08:27;;;;;;;5.57;3.67;;;;;;;;;;4994337;28;20207;-68
2023/09/18 09:10:53;;;;;;;4.55;4.05;;;;;;;;;;4994821;28;20183;-70
2023/09/18 09:13:21;;;;;;;6.95;4.07;;;;;;;;;;4994753;28;20218;-68
2023/09/18 09:15:47;;;;;;;4.45;3.90;;;;;;;;;;4992518;28;20203;-69
2023/09/18 09:18:14;;;;;;;6.38;3.85;;;;;;;;;;4994262;28;20183;-69
2023/09/18 09:20:40;;;;;;;6.65;4.13;;;;;;;;;;4992876;28;20262;-69
2023/09/18 09:23:09;;;;;;;5.28;4.78;;;;;;;;;;4994104;28;20207;-69
2023/09/18 09:25:35;;;;;;;7.45;5.90;;;;;;;;;;4995111;28;20186;-69
2023/09/18 09:28:03;;;;;;;6.22;5.47;;;;;;;;;;4994559;28;20274;-69
2023/09/18 09:30:29;;;;;;;7.47;6.75;;;;;;;;;;4995220;28;20626;-69
2023/09/18 09:32:55;;;;;;;6.57;5.97;;;;;;;;;;4992397;28;20179;-69
2023/09/18 09:35:26;;;;;;;7.13;6.43;;;;;;;;;;4994288;28;20681;-70
2023/09/18 09:37:52;;;;;;;10.52;6.38;;;;;;;;;;4994410;28;20294;-69
2023/09/18 09:40:18;;;;;;;9.93;7.63;;;;;;;;;;4995279;28;20204;-69
2023/09/18 09:42:45;;;;;;;7.05;6.45;;;;;;;;;;4994330;28;20180;-69
2023/09/18 09:45:17;;;;;;;7.82;6.43;;;;;;;;;;4994668;28;20180;-69
2023/09/18 09:47:43;;;;;;;9.00;6.45;;;;;;;;;;4994784;28;20223;-69
2023/09/18 09:50:10;;;;;;;8.32;6.35;;;;;;;;;;4993174;28;20587;-69
2023/09/18 09:52:35;;;;;;;6.68;5.80;;;;;;;;;;4994381;28;20284;-69
2023/09/18 09:55:03;;;;;;;6.10;5.50;;;;;;;;;;4995333;28;20211;-69
2023/09/18 09:57:29;;;;;;;5.95;5.35;;;;;;;;;;4994740;28;20200;-69
2023/09/18 10:00:06;;;;;;;7.60;5.65;;;;;;;;;;4993595;28;20323;-69
2023/09/18 10:02:34;;;;;;;6.82;5.40;;;;;;;;;;4994385;28;20225;-69
2023/09/18 10:04:59;;;;;;;6.53;5.07;;;;;;;;;;4993139;28;20184;-68
2023/09/18 10:07:25;;;;;;;4.85;4.32;;;;;;;;;;4987315;28;20215;-68
2023/09/18 10:09:50;;;;;;;5.07;4.25;;;;;;;;;;4992245;28;20246;-68
2023/09/18 10:12:20;;;;;;;4.13;3.63;;;;;;;;;;5009083;28;20211;-69
2023/09/18 10:14:48;;;;;;;3.97;3.65;;;;;;;;;;4993696;28;20271;-69
2023/09/18 10:17:18;;;;;;;6.15;3.60;;;;;;;;;;4993243;28;20753;-69
2023/09/18 10:20:09;;;;;;;4.45;3.90;;;;;;;;;;4995903;28;20274;-69
2023/09/18 10:22:38;;;;;;;6.38;4.00;;;;;;;;;;4990362;28;20172;-68
2023/09/18 10:25:23;;;;;;;5.90;4.50;;;;;;;;;;4990953;28;20270;-68
2023/09/18 10:27:49;;;;;;;4.40;3.97;;;;;;;;;;4993824;28;20210;-69
2023/09/18 10:30:18;;;;;;;8.02;4.43;;;;;;;;;;4992949;28;20191;-69
2023/09/18 10:32:45;;;;;;;5.63;3.80;;;;;;;;;;4991009;28;20266;-68
2023/09/18 10:35:11;;;;;;;4.47;3.80;;;;;;;;;;4993639;28;20203;-68
2023/09/18 10:37:37;;;;;;;6.75;4.78;;;;;;;;;;4994506;28;20206;-69
2023/09/18 10:40:04;;;;;;;4.85;4.25;;;;;;;;;;4993202;28;20175;-69
2023/09/18 10:42:30;;;;;;;6.32;4.70;;;;;;;;;;4994312;28;20186;-69
2023/09/18 10:44:56;;;;;;;11.55;5.57;;;;;;;;;;4992964;28;20207;-69
2023/09/18 10:47:22;;;;;;;6.90;4.93;;;;;;;;;;4993147;28;20243;-68
2023/09/18 10:49:49;;;;;;;6.80;4.63;;;;;;;;;;4993981;28;20627;-68
2023/09/18 10:52:15;;;;;;;5.80;4.30;;;;;;;;;;4992972;28;20180;-68
2023/09/18 10:54:40;;;;;;;5.13;4.63;;;;;;;;;;4992481;28;20270;-69
2023/09/18 10:57:05;;;;;;;4.80;3.90;;;;;;;;;;4992992;28;20619;-69
2023/09/18 10:59:31;;;;;;;6.85;4.35;;;;;;;;;;4992734;28;20172;-69
2023/09/18 11:01:56;;;;;;;4.72;4.22;;;;;;;;;;4991641;28;20180;-69
2023/09/18 11:04:22;;;;;;;8.15;3.75;;;;;;;;;;4993418;28;20182;-69
2023/09/18 11:06:54;;;;;;;6.15;4.20;;;;;;;;;;4992693;28;20306;-69
2023/09/18 11:09:23;;;;;;;4.45;3.20;;;;;;;;;;4990854;28;20194;-69
2023/09/18 11:12:02;;;;;;;6.05;4.22;;;;;;;;;;4991808;28;20183;-69
2023/09/18 11:14:45;;;;;;;5.22;3.50;;;;;;;;;;4990624;28;20215;-68
2023/09/18 11:17:29;;;;;;;3.90;3.10;;;;;;;;;;4990029;28;20204;-69
2023/09/18 11:20:15;;;;;;;3.90;3.30;;;;;;;;;;4991991;28;20262;-69
2023/09/18 11:22:48;;;;;;;8.82;4.15;;;;;;;;;;4987163;28;20187;-68
2023/09/18 11:25:29;;;;;;;6.93;3.28;;;;;;;;;;4990599;28;20187;-69
2023/09/18 11:27:58;;;;;;;3.72;3.28;;;;;;;;;;4989334;28;20206;-70
2023/09/18 11:30:23;;;;;;;7.68;3.55;;;;;;;;;;4991872;28;20179;-68
2023/09/18 11:32:49;;;;;;;10.23;3.78;;;;;;;;;;4990451;28;20191;-69
2023/09/18 11:35:17;;;;;;;4.32;2.97;;;;;;;;;;4991632;28;20237;-69
2023/09/18 11:37:43;;;;;;;4.45;2.83;;;;;;;;;;4992851;28;20202;-69
2023/09/18 11:40:26;;;;;;;5.70;3.85;;;;;;;;;;4987336;28;20172;-69
2023/09/18 11:43:10;;;;;;;3.80;2.70;;;;;;;;;;4991076;28;20258;-69
2023/09/18 11:45:36;;;;;;;6.13;3.22;;;;;;;;;;4991912;28;20175;-69
2023/09/18 11:48:02;;;;;;;10.75;3.63;;;;;;;;;;4991922;28;20194;-69
2023/09/18 11:50:30;;;;;;;4.63;2.92;;;;;;;;;;4992372;28;20203;-69
2023/09/18 11:52:56;;;;;;;8.77;4.10;;;;;;;;;;4992530;28;20178;-68
2023/09/18 11:55:23;;;;;;;4.72;4.03;;;;;;;;;;4992675;28;20250;-69
2023/09/18 11:57:48;;;;;;;5.00;3.72;;;;;;;;;;4991289;28;20200;-69
2023/09/18 12:00:23;;;;;;;7.78;3.95;;;;;;;;;;4992712;28;20179;-69
2023/09/18 12:02:49;;;;;;;6.45;4.68;;;;;;;;;;4991700;28;20178;-68
2023/09/18 12:05:18;;;;;;;7.68;4.18;;;;;;;;;;4992390;28;20266;-69
2023/09/18 12:07:45;;;;;;;5.35;3.15;;;;;;;;;;4992399;28;20277;-69
2023/09/18 12:10:10;;;;;;;3.88;3.33;;;;;;;;;;4992493;28;20651;-69
2023/09/18 12:12:36;;;;;;;5.78;3.45;;;;;;;;;;4992391;28;20198;-69
2023/09/18 12:15:01;;;;;;;3.40;3.08;;;;;;;;;;4987404;28;20207;-70
2023/09/18 12:17:27;;;;;;;3.38;2.60;;;;;;;;;;4989316;28;20219;-69
2023/09/18 12:19:53;;;;;;;2.83;2.53;;;;;;;;;;4990621;28;20262;-69
2023/09/18 12:22:28;;;;;;;5.03;3.17;;;;;;;;;;4988221;28;20560;-69
2023/09/18 12:25:08;;;;;;;4.68;3.60;;;;;;;;;;4988858;28;20179;-69
2023/09/18 12:27:35;;;;;;;6.15;2.92;;;;;;;;;;4991878;28;20206;-68
2023/09/18 12:30:00;;;;;;;2.60;2.35;;;;;;;;;;4992134;28;20673;-69
2023/09/18 12:32:25;;;;;;;4.70;2.80;;;;;;;;;;4989347;28;20192;-68
2023/09/18 12:34:51;;;;;;;2.70;2.50;;;;;;;;;;4990916;28;20319;-68
2023/09/18 12:37:16;;;;;;;3.58;2.47;;;;;;;;;;4992072;28;20967;-69
2023/09/18 12:39:42;;;;;;;3.72;3.08;;;;;;;;;;4992308;28;20176;-69
2023/09/18 12:42:07;;;;;;;2.97;2.73;;;;;;;;;;4992057;28;20210;-69
2023/09/18 12:44:32;;;;;;;3.95;2.88;;;;;;;;;;4992733;28;20505;-69
2023/09/18 12:46:57;;;;;;;5.05;3.38;;;;;;;;;;4992182;28;20196;-69
2023/09/18 12:49:27;;;;;;;7.22;3.28;;;;;;;;;;4991265;28;20226;-68
2023/09/18 12:51:55;;;;;;;4.25;3.60;;;;;;;;;;4991201;28;20564;-68
2023/09/18 12:54:21;;;;;;;5.07;4.40;;;;;;;;;;4979333;28;20206;-69
2023/09/18 12:56:46;;;;;;;5.15;4.38;;;;;;;;;;4989301;28;20286;-69
2023/09/18 12:59:12;;;;;;;10.00;5.93;;;;;;;;;;4992828;28;20214;-69
2023/09/18 13:01:38;;;;;;;6.68;4.80;;;;;;;;;;4985220;28;20176;-69
2023/09/18 13:04:05;;;;;;;6.25;4.47;;;;;;;;;;4992510;28;20361;-68
2023/09/18 13:06:31;;;;;;;5.60;3.92;;;;;;;;;;4994627;28;20202;-69
2023/09/18 13:09:14;;;;;;;7.10;4.63;;;;;;;;;;4994932;28;20677;-69
2023/09/18 13:11:52;;;;;;;7.20;4.28;;;;;;;;;;4993533;28;20595;-69
2023/09/18 13:14:17;;;;;;;6.60;4.90;;;;;;;;;;4993098;28;20314;-68
2023/09/18 13:16:43;;;;;;;4.93;4.03;;;;;;;;;;4994749;28;20203;-69
2023/09/18 13:19:10;;;;;;;6.00;4.18;;;;;;;;;;4993756;28;20524;-69
2023/09/18 13:21:36;;;;;;;4.50;4.10;;;;;;;;;;4994152;28;20199;-69
2023/09/18 13:24:05;;;;;;;6.13;3.70;;;;;;;;;;4994277;28;20175;-69
2023/09/18 13:26:30;;;;;;;5.57;4.32;;;;;;;;;;4993899;28;20286;-68
2023/09/18 13:28:55;;;;;;;4.27;3.33;;;;;;;;;;4993704;28;20266;-68
2023/09/18 13:31:20;;;;;;;6.47;3.33;;;;;;;;;;4994020;28;20806;-68
2023/09/18 13:33:46;;;;;;;6.07;3.07;;;;;;;;;;4994048;28;20452;-68
2023/09/18 13:36:11;;;;;;;6.00;3.40;;;;;;;;;;4994830;28;20531;-69
2023/09/18 13:38:36;;;;;;;6.07;3.40;;;;;;;;;;4994411;28;20230;-69
2023/09/18 13:41:04;;;;;;;4.83;2.80;;;;;;;;;;4993879;28;20808;-68
2023/09/18 13:43:32;;;;;;;5.75;3.63;;;;;;;;;;4992789;28;20426;-68
2023/09/18 13:45:58;;;;;;;4.22;2.65;;;;;;;;;;4994725;28;20204;-68
2023/09/18 13:48:23;;;;;;;2.58;2.28;;;;;;;;;;4993767;28;20607;-69
2023/09/18 13:50:49;;;;;;;2.53;1.80;;;;;;;;;;4994886;28;20258;-69
2023/09/18 13:53:14;;;;;;;3.35;2.00;;;;;;;;;;4993651;28;20180;-68
2023/09/18 13:55:40;;;;;;;3.20;1.85;;;;;;;;;;4993698;28;20338;-69
2023/09/18 13:58:05;;;;;;;2.65;1.95;;;;;;;;;;4994631;28;20288;-69
2023/09/18 14:00:31;;;;;;;3.80;1.65;;;;;;;;;;4995059;28;20188;-69
2023/09/18 14:02:56;;;;;;;3.80;2.22;;;;;;;;;;4994418;28;20175;-68
2023/09/18 14:05:22;;;;;;;2.28;1.60;;;;;;;;;;4992787;28;20655;-68
2023/09/18 14:07:47;;;;;;;3.15;2.08;;;;;;;;;;4992675;28;20600;-68
2023/09/18 14:10:13;;;;;;;3.17;1.88;;;;;;;;;;4994495;28;20258;-69
2023/09/18 14:12:38;;;;;;;2.75;1.92;;;;;;;;;;4995025;28;20188;-68
2023/09/18 14:15:07;;;;;;;3.33;1.70;;;;;;;;;;4990638;28;20247;-69
2023/09/18 14:17:32;;;;;;;2.80;2.22;;;;;;;;;;4994027;28;20583;-67
2023/09/18 14:19:58;;;;;;;2.95;2.03;;;;;;;;;;4993727;28;20194;-68
2023/09/18 14:22:24;;;;;;;3.75;1.90;;;;;;;;;;4995472;28;20651;-69
2023/09/18 14:24:49;;;;;;;4.18;1.80;;;;;;;;;;4994683;28;20210;-68
2023/09/18 14:27:15;;;;;;;3.05;1.85;;;;;;;;;;4995023;28;20230;-69